Joaquín Bianchi

Olheiro - Instituto
28 Nov 2027
Domingo
Processo

Personalidade

Adaptabilidade (15) Ambição (4) Controvérsia (10) Lealdade (9) Pressão (1) Profissionalismo (18) Espírito Esportivo (12) Temperamento (1)

Perfil

Estilo de Treinamento Democrático
Licença Continental B
Determinação 6
Gestão de Pessoas 10
Motivação 6
Disciplina 11
Satisfação no Trabalho
100%
Fadiga
0%
Função Olheiro
Salário 76.5K p/s
Contrato 14.03.2029

Desempenho

Comportamento Bom
Eficácia do Treinamento
46%
Desenvolvimento do Jogador
60%
Prevenção de Lesões
30%
Implementação Tática
60%

Eventos Recentes

Participou de uma reunião de recrutamento agora
Participou de uma reunião de recrutamento 7d atrás
Participou de uma reunião de recrutamento 7d atrás
Participou de uma reunião de recrutamento 7d atrás
Aniversário 7d atrás
Participou de uma reunião de recrutamento 14d atrás
Participou de uma reunião de recrutamento 14d atrás
Participou de uma reunião de recrutamento 14d atrás

Monitorando agora

159
Jogador Clube Status Habilidade Confiança Observado Última observação Último voto
Rivaldo Mouscron Ativo 134 / 118 40% 4 28.05.2027 -
Santiago Puzzo Getafe Ativo 122 / 119 40% 2 28.05.2027 -
Jonathan De Irastorza Levante Ativo 138 / 140 40% 2 27.05.2027 -
Agustín De la Cuesta Sevilla Ativo 106 / 102 40% 4 27.05.2027 -
Jan Salas Huesca Ativo 114 / 110 40% 2 24.05.2027 -
Manuel Salcedo Tigres Ativo 103 / 110 40% 1 18.05.2027 -
Lebogang Mokotjo Ajax Cape Town Ativo 79 / 99 40% 1 17.05.2027 -
Lisandro Piñero Celta Ativo 137 / 149 40% 4 15.05.2027 -
Geovany Quenda Chelsea Ativo 148 / 147 40% 1 15.05.2027 -
Lennon Miller AC Milan Ativo 119 / 134 40% 4 14.05.2027 -
Wassim Bouziane AZ Ativo 110 / 121 40% 3 14.05.2027 -
Alejandro Almaraz Eibar Ativo 94 / 129 40% 2 12.05.2027 -
Mfundo Vilakazi Bloemfontein Celtic Ativo 110 / 134 40% 2 11.05.2027 -
Marcos Arias Aragua Ativo 85 / 84 40% 2 11.05.2027 -
Ronwen Vilakazi Ajax Cape Town Ativo 79 / 108 40% 2 10.05.2027 -
Luphumlo Sifumba Maritzburg United Ativo 74 / 116 40% 1 02.05.2027 -
Paulo Cardoso Sporting CP Ativo 85 / 115 40% 3 29.04.2027 -
Agustín Medina Athletic Bilbao Ativo 113 / 120 40% 2 29.04.2027 -
Eliás Montiel Atlético Madrid Ativo 141 / 131 40% 2 24.04.2027 -
Edison Gruezo Queretaro Ativo 112 / 123 40% 1 23.04.2027 -
Thomas Jørgensen Toulouse FC Ativo 146 / 134 40% 1 21.04.2027 -
Diogo Guzmán Deportivo La Coruña Ativo 111 / 104 40% 1 19.04.2027 -
Harrison Armstrong Hull City Ativo 127 / 114 40% 1 19.04.2027 -
Víctor Guzmán Sporting CP Ativo 92 / 107 40% 1 16.04.2027 -
Leonardo Mendicino Bari Ativo 128 / 112 40% 1 28.03.2027 -
Dramane Kamagaté USM Alger Ativo 100 / 104 40% 1 24.03.2027 -
Tomás Abdelnur Santos Laguna Ativo 84 / 108 40% 1 23.03.2027 -
Kirill Glebov CSKA Moscow Ativo 118 / 111 40% 2 21.03.2027 -
Rio Morgan Zvezda Ativo 63 / 94 40% 1 18.03.2027 -
Mateus Mané Liverpool Ativo 127 / 150 40% 1 18.03.2027 -
Yussif Saidu Zaragoza Ativo 128 / 117 40% 2 15.03.2027 -
George Paaku Hearts of Oak Ativo 85 / 81 40% 1 13.03.2027 -
Lennart Karl VfL Wolfsburg Ativo 150 / 136 40% 3 12.03.2027 -
Victor Ehibe Ashanti Gold Ativo 92 / 104 40% 1 10.03.2027 -
Asanele Bonani Chippa United Ativo 106 / 104 40% 1 05.03.2027 -
Caleb Yirenkyi Coventry City Ativo 149 / 155 40% 1 05.03.2027 -
Josh King Charlton Athletic Ativo 154 / 156 40% 1 04.03.2027 -
Sindre Walle Egeli Ipswich Town Ativo 144 / 118 40% 1 03.03.2027 Mais informações
James Dornelly Peterborough United Ativo 93 / 99 40% 2 28.02.2027 -
Malick Fofana Sunderland Ativo 130 / 154 40% 1 28.02.2027 -
Juan Pablo De la Reta Getafe Ativo 104 / 112 40% 2 24.02.2027 -
Shea Lacey Hull City Ativo 134 / 142 40% 1 24.02.2027 -
Chemsdine Talbi Sunderland Ativo 123 / 135 40% 2 23.02.2027 -
Agustín Ortega Atromitos Ativo 89 / 92 40% 1 23.02.2027 -
Eduardo Fernandes Benfica Ativo 95 / 123 40% 1 22.02.2027 -
Jesús Rodríguez Como Ativo 128 / 136 40% 2 15.02.2027 -
Ethan Williams Peterborough United Ativo 100 / 121 40% 1 04.02.2027 -
Nahuel Leivas Montevideo City Torque Ativo 108 / 118 40% 1 03.02.2027 -
Diego Cheuquepal Racing Ativo 95 / 110 40% 1 01.02.2027 -
Simphiwe Selepe Orlando Pirates Ativo 100 / 118 40% 1 01.02.2027 -
Marcelo Allende Mamelodi Sundowns Ativo 123 / 130 40% 1 30.11.2026 -
Stanley Mills Oxford United Ativo 103 / 127 40% 1 30.11.2026 -
Nicolás Sosa La Luz Ativo 81 / 105 40% 3 29.11.2026 -
Lautaro Navarro Defensor Sporting Ativo 72 / 104 40% 1 29.11.2026 -
Juan Bisanz Huracán Ativo 124 / 118 40% 2 28.11.2026 -
Alan Lescano Argentinos Juniors Ativo 131 / 135 40% 1 25.11.2026 -
Matías Fernández Independiente Rivadavia Ativo 116 / 128 40% 1 25.11.2026 -
Alan Cantero Alianza Lima Ativo 123 / 123 40% 2 22.11.2026 -
Thalys Almería Ativo 126 / 133 40% 1 22.11.2026 -
Fernando Corica Sampdoria Ativo 94 / 102 40% 1 22.11.2026 -
Ramiro Hernandes Cagliari Ativo 106 / 122 40% 1 19.11.2026 -
Martín Ojeda Orlando City Ativo 114 / 125 40% 4 16.11.2026 -
Efraín Álvarez Udinese Ativo 130 / 142 40% 1 16.11.2026 -
Ronald Swansea City Ativo 130 / 112 40% 1 15.11.2026 -
Antony Alonso Deportivo Riestra Ativo 111 / 127 40% 1 13.11.2026 -
Rodrigo Martínez Nacional Ativo 85 / 103 40% 1 12.11.2026 -
Ihojan Pérez Cerro Largo Ativo 83 / 104 40% 1 12.11.2026 -
Joaquín Pereyra Minnesota United FC Ativo 128 / 142 40% 2 10.11.2026 -
Facundo Núñez Liverpool Montevideo Ativo 94 / 101 40% 2 10.11.2026 -
Nicolás Burgio Montevideo City Torque Ativo 80 / 100 40% 2 10.11.2026 -
Pablo Ruiz Real Salt Lake Ativo 141 / 108 40% 1 10.11.2026 -
Agustín Kahl Racing Ativo 103 / 95 40% 1 09.11.2026 -
Tadeo Allende Inter Miami CF Ativo 126 / 138 40% 3 07.11.2026 -
Alejo Cruz Juventud Ativo 132 / 124 40% 2 07.11.2026 -
Csanád Vilmos Dénes Debrecen Ativo 107 / 118 40% 1 06.11.2026 -
Jonatan Torres Cerro Porteno Ativo 120 / 115 40% 2 05.11.2026 -
Eduardo Delmás Wisla Krakow Ativo 92 / 80 40% 1 05.11.2026 -
Esteban Obregón Montevideo City Torque Ativo 105 / 105 40% 2 03.11.2026 -
Ramiro Peralta Juventud Ativo 111 / 129 40% 1 03.11.2026 -
Elías Báez Atlanta United FC Ativo 118 / 130 40% 1 01.11.2026 -
Santiago Pierotti Lecce Ativo 115 / 115 40% 1 01.11.2026 -
Tomás Chancalay Minnesota United FC Ativo 120 / 138 40% 1 01.11.2026 -
Nicolás Cordero Aldosivi Ativo 105 / 119 40% 1 29.10.2026 -
Lucas Acosta Liverpool Montevideo Ativo 98 / 118 40% 1 29.10.2026 -
Francisco Bonfiglio Boston River Ativo 114 / 115 40% 2 27.10.2026 -
Agustín Módica Gimnasia y Esgrima Ativo 107 / 110 40% 1 27.10.2026 -
Franco Troyansky Audax Italiano Ativo 102 / 109 40% 2 25.10.2026 -
Leandro Suhr Boston River Ativo 110 / 127 40% 1 24.10.2026 -
Federico Girotti Alianza Lima Ativo 135 / 115 40% 1 24.10.2026 -
Tobías Reinhart Universidad de Chile Ativo 124 / 126 40% 1 24.10.2026 -
Rodrigo González Aldosivi Ativo 131 / 117 40% 1 22.10.2026 -
Gonzalo Luján Inter Miami CF Ativo 108 / 116 40% 1 22.10.2026 -
Ignacio Perruzzi San Lorenzo Ativo 130 / 122 40% 1 20.10.2026 -
Jacques Ekomié Wrexham Ativo 111 / 144 40% 1 20.10.2026 -
Issa Kaboré Wrexham Ativo 146 / 112 40% 1 19.10.2026 -
Felipe Peña Biafore Lanús Ativo 120 / 136 40% 1 19.10.2026 -
Jherson Mosquera Newell's Old Boys Ativo 126 / 111 40% 1 17.10.2026 -
Adrián Sánchez Belgrano Ativo 132 / 116 40% 1 17.10.2026 -
Facundo Mura Inter Miami CF Ativo 121 / 134 40% 1 16.10.2026 -
Oscar Salomón Newell's Old Boys Ativo 109 / 125 40% 1 15.10.2026 -
Siro Rosané Estudiantes Ativo 121 / 124 40% 1 15.10.2026 -
Pedro Ramírez Deportivo Riestra Ativo 120 / 117 40% 1 13.10.2026 -
Facundo Garcés Alavés Ativo 140 / 147 40% 1 13.10.2026 -
David Ayala Inter Miami CF Ativo 128 / 112 40% 1 13.10.2026 -
Agustín Venezia Iquique Ativo 100 / 111 40% 3 10.10.2026 -
Agustín Alaniz Juventud Ativo 122 / 108 40% 2 10.10.2026 -
Facundo de León Progreso Ativo 100 / 113 40% 1 08.10.2026 -
Maicol Ferreira Danubio Ativo 100 / 101 40% 1 08.10.2026 -
Facundo Batista Penarol Ativo 125 / 128 40% 2 07.10.2026 -
Justo Giani Universidad Catolica Ativo 113 / 128 40% 2 06.10.2026 -
Franco Carretero Deportivo Lara Ativo 94 / 108 40% 2 05.10.2026 -
Zacarías López Iquique Ativo 112 / 92 40% 1 05.10.2026 -
César Araújo Tigres Ativo 128 / 139 40% 1 05.10.2026 -
Franco Déboli Cardiff City Ativo 87 / 97 40% 1 04.10.2026 -
Leandro Godoy CSKA Sofia Ativo 124 / 131 40% 1 04.10.2026 -
Renato Solís Sporting Cristal Ativo 130 / 122 40% 1 03.10.2026 -
Tomás Lingua Cerro Largo Ativo 96 / 97 40% 1 03.10.2026 -
Luis Malagón Club America Ativo 155 / 128 40% 3 01.10.2026 -
Nehemías Almaraz Hull City Ativo 74 / 100 40% 1 30.09.2026 -
Ignacio Colombo Estudiantes de Caracas Ativo 87 / 102 40% 1 30.09.2026 -
Nahuel Pezzini Arsenal Ativo 122 / 107 40% 1 27.09.2026 -
Joaquín Zeballos Wanderers Ativo 107 / 111 40% 1 26.09.2026 -
Juninho Pumas UNAM Ativo 121 / 129 40% 1 26.09.2026 -
Jefry Zapata Once Caldas Ativo 111 / 119 40% 2 24.09.2026 -
Jorge Obregón Deportivo Pasto Ativo 115 / 110 40% 1 23.09.2026 -
Sebastián Jaume Albion Ativo 85 / 109 40% 1 22.09.2026 -
Lucas Bruera Carabobo Ativo 129 / 112 40% 2 21.09.2026 -
Lautaro Petruchi Gimnasia y Esgrima Ativo 120 / 111 40% 1 18.09.2026 -
Williams Barlasina Fortaleza CEIF Ativo 107 / 108 40% 1 18.09.2026 -
Julián Brea Cobresal Ativo 113 / 104 40% 1 16.09.2026 -
Matías Gallegos Antofagasta Ativo 102 / 93 40% 1 15.09.2026 -
Iván Maggi Sportivo Luqueno Ativo 107 / 122 40% 1 13.09.2026 -
Adrián Parra Deportes Tolima Ativo 125 / 127 40% 1 11.09.2026 -
Ángel Maciel Tacuarembo Ativo 89 / 110 40% 1 11.09.2026 -
Santiago Hernandez La Equidad Ativo 88 / 88 40% 1 11.09.2026 -
Nicolás Forastiero Deportivo Maldonado Ativo 97 / 106 40% 2 09.09.2026 -
Emiliano González Almagro Ativo 111 / 104 40% 1 09.09.2026 Mais informações
Agustín Solari 12 de Octubre Ativo 87 / 100 40% 1 08.09.2026 -
Agustín Olavarría Colon Ativo 84 / 94 40% 1 08.09.2026 -
Alexander González Boston River Ativo 95 / 96 40% 1 05.09.2026 -
Agustín Paz Progreso Ativo 101 / 108 40% 1 05.09.2026 -
Diego Rossi Monterrey Ativo 140 / 134 40% 2 26.08.2026 -
Rodrigo Morínigo Libertad Ativo 128 / 124 40% 1 26.08.2026 -
Santiago Rodríguez Fenix Ativo 101 / 95 40% 1 26.08.2026 -
Florián Monzón Atlas Ativo 129 / 130 40% 1 26.08.2026 -
Jorge Hernández Tijuana Ativo 125 / 118 40% 1 24.08.2026 -
Sebastián Lentinelly Olimpia Ativo 94 / 97 40% 1 24.08.2026 -
Fernando Alonso Cruz Azul Ativo 101 / 113 40% 1 20.08.2026 -
Nicolás Rossi Juventud Ativo 105 / 105 40% 1 20.08.2026 -
Omar Carabalí O'Higgins Ativo 104 / 107 40% 1 15.08.2026 -
Angel Zamudio Sport Huancayo Ativo 123 / 126 40% 1 15.08.2026 -
Bautista Tomatis Racing Ativo 112 / 106 40% 1 14.08.2026 -
Esteban da Silva Racing Ativo 115 / 110 40% 1 12.08.2026 -
Oscar Rangel Braga Ativo 129 / 121 40% 2 11.08.2026 -
Franco Pulicastro Fortaleza CEIF Ativo 97 / 115 40% 1 08.08.2026 -
Maximiliano Silvera Nacional Ativo 113 / 108 40% 1 06.08.2026 -
Carlos Moreno Pachuca Ativo 114 / 125 40% 1 05.08.2026 -
Francisco Coirolo Atenas Ativo 88 / 93 40% 1 05.08.2026 -
Fernando Tapia Club America Ativo 122 / 128 40% 2 04.08.2026 -